Terminal Aerodrome Forecast
Issued by NWS Wilmington, OH

Home | Current Version | Previous Version | Text Only | Print | Product List | Glossary On
Versions: 1 2 3 4 5 6 7 8 9 10 11 12 13 14 15 16 17 18 19 20 21 22 23 24 25 26 27 28 29
575
FTUS41 KILN 270544
TAFILN
TAF
KILN 270544Z 2706/2806 00000KT P6SM BKN250
     FM271500 25010KT P6SM SCT250
     FM272000 26011G20KT P6SM VCSH BKN050
      TEMPO 2720/2723 -SHRA
     FM272300 27011KT P6SM SCT060
     FM280500 21008KT P6SM BKN070=

USA.gov is the U.S. government's official web portal to all federal, state and local government web resources and services.